Akiak, Alaska
Current Conditions -  °F | °C
As of 5:56 PM on Sunday 23 Nov 2014 (Local Time) from PFKW Reporting Station
Overcast Overcast  
Wind Chill:   Ceiling: 6000
Heat Index: 18°   Visibility: 10mi
Dew Point: 12°   Wind: 9mph
Humidity: 78%   Direction: 20°NNE
Pressure: 29.46"   Gusts: NA
Location:  60.92°N, 161.23°W
Report Text: PFKW 240256Z AUTO 02008KT 10SM OVC060 M08/M11 A2946 RMK AO2 SLP975 T10781111 53015 FZRANO $
Loading
Personal Weather Stations






























Interactive Weather Map New forecast layout! Learn more

10-Day Weather Forecast

Advertisements
Track Severe Weather on mobile